sensor_id;sensor_type;location;lat;lon;timestamp;temperature;humidity
46490;DHT22;32204;49.160;8.580;2023-02-28T00:00:23;0.80;99.90
46490;DHT22;32204;49.160;8.580;2023-02-28T00:02:49;0.90;99.90
46490;DHT22;32204;49.160;8.580;2023-02-28T00:05:18;0.80;99.90
46490;DHT22;32204;49.160;8.580;2023-02-28T00:07:44;0.80;99.90
46490;DHT22;32204;49.160;8.580;2023-02-28T00:10:12;0.90;99.90
46490;DHT22;32204;49.160;8.580;2023-02-28T00:12:37;0.90;99.90
46490;DHT22;32204;49.160;8.580;2023-02-28T00:15:09;0.90;99.90
46490;DHT22;32204;49.160;8.580;2023-02-28T00:17:36;0.90;99.90
46490;DHT22;32204;49.160;8.580;2023-02-28T00:20:02;0.80;99.90
46490;DHT22;32204;49.160;8.580;2023-02-28T00:22:30;0.90;99.90
46490;DHT22;32204;49.160;8.580;2023-02-28T00:24:56;0.80;99.90
46490;DHT22;32204;49.160;8.580;2023-02-28T00:27:21;0.70;99.90
46490;DHT22;32204;49.160;8.580;2023-02-28T00:29:47;0.70;1.00
46490;DHT22;32204;49.160;8.580;2023-02-28T00:32:13;0.70;1.00
46490;DHT22;32204;49.160;8.580;2023-02-28T00:34:39;0.80;99.90
46490;DHT22;32204;49.160;8.580;2023-02-28T00:37:09;0.80;99.90
46490;DHT22;32204;49.160;8.580;2023-02-28T00:39:37;0.70;1.00
46490;DHT22;32204;49.160;8.580;2023-02-28T00:42:03;0.70;1.00
46490;DHT22;32204;49.160;8.580;2023-02-28T00:44:29;0.70;1.00
46490;DHT22;32204;49.160;8.580;2023-02-28T00:46:56;0.70;1.00
46490;DHT22;32204;49.160;8.580;2023-02-28T00:49:22;0.70;1.00
46490;DHT22;32204;49.160;8.580;2023-02-28T00:51:48;0.70;1.00
46490;DHT22;32204;49.160;8.580;2023-02-28T00:54:13;0.70;1.00
46490;DHT22;32204;49.160;8.580;2023-02-28T00:56:39;0.60;1.00
46490;DHT22;32204;49.160;8.580;2023-02-28T00:59:05;0.70;1.00
46490;DHT22;32204;49.160;8.580;2023-02-28T01:01:30;0.70;1.00
46490;DHT22;32204;49.160;8.580;2023-02-28T01:03:56;0.70;1.00
46490;DHT22;32204;49.160;8.580;2023-02-28T01:06:22;0.70;1.00
46490;DHT22;32204;49.160;8.580;2023-02-28T01:08:47;0.70;1.00
46490;DHT22;32204;49.160;8.580;2023-02-28T01:11:15;0.60;1.00
46490;DHT22;32204;49.160;8.580;2023-02-28T01:13:42;0.60;1.00
46490;DHT22;32204;49.160;8.580;2023-02-28T01:16:07;0.60;1.00
46490;DHT22;32204;49.160;8.580;2023-02-28T01:18:33;0.60;1.00
46490;DHT22;32204;49.160;8.580;2023-02-28T01:21:07;0.60;1.00
46490;DHT22;32204;49.160;8.580;2023-02-28T01:23:33;0.70;1.00
46490;DHT22;32204;49.160;8.580;2023-02-28T01:26:10;0.60;1.00
46490;DHT22;32204;49.160;8.580;2023-02-28T01:28:37;0.60;11.40
46490;DHT22;32204;49.160;8.580;2023-02-28T01:31:02;0.60;15.40
46490;DHT22;32204;49.160;8.580;2023-02-28T01:33:28;0.50;52.40
46490;DHT22;32204;49.160;8.580;2023-02-28T01:36:04;0.50;99.90
46490;DHT22;32204;49.160;8.580;2023-02-28T01:38:31;0.50;99.90
46490;DHT22;32204;49.160;8.580;2023-02-28T01:40:57;0.40;99.90
46490;DHT22;32204;49.160;8.580;2023-02-28T01:43:29;0.40;99.90
46490;DHT22;32204;49.160;8.580;2023-02-28T01:45:57;0.50;99.90
46490;DHT22;32204;49.160;8.580;2023-02-28T01:48:35;0.40;99.90
46490;DHT22;32204;49.160;8.580;2023-02-28T01:51:06;0.40;99.90
46490;DHT22;32204;49.160;8.580;2023-02-28T01:53:37;0.50;99.90
46490;DHT22;32204;49.160;8.580;2023-02-28T01:56:06;0.50;99.90
46490;DHT22;32204;49.160;8.580;2023-02-28T01:58:33;0.50;99.90
46490;DHT22;32204;49.160;8.580;2023-02-28T02:00:58;0.40;99.90
46490;DHT22;32204;49.160;8.580;2023-02-28T02:03:24;0.40;99.90
46490;DHT22;32204;49.160;8.580;2023-02-28T02:05:50;0.40;99.90
46490;DHT22;32204;49.160;8.580;2023-02-28T02:08:23;0.40;99.90
46490;DHT22;32204;49.160;8.580;2023-02-28T02:10:58;0.30;99.90
46490;DHT22;32204;49.160;8.580;2023-02-28T02:25:32;0.30;99.90
46490;DHT22;32204;49.160;8.580;2023-02-28T02:28:11;0.30;99.90
46490;DHT22;32204;49.160;8.580;2023-02-28T02:44:21;0.20;1.00
46490;DHT22;32204;49.160;8.580;2023-02-28T02:46:49;0.30;1.00
46490;DHT22;32204;49.160;8.580;2023-02-28T02:49:28;0.30;1.00
46490;DHT22;32204;49.160;8.580;2023-02-28T02:51:56;0.20;1.00
46490;DHT22;32204;49.160;8.580;2023-02-28T02:54:30;0.30;1.00
46490;DHT22;32204;49.160;8.580;2023-02-28T02:57:01;0.30;1.00
46490;DHT22;32204;49.160;8.580;2023-02-28T02:59:28;0.30;1.00
46490;DHT22;32204;49.160;8.580;2023-02-28T03:02:01;0.30;1.00
46490;DHT22;32204;49.160;8.580;2023-02-28T03:04:32;0.30;1.00
46490;DHT22;32204;49.160;8.580;2023-02-28T03:06:58;0.30;1.00
46490;DHT22;32204;49.160;8.580;2023-02-28T03:09:25;0.30;1.00
46490;DHT22;32204;49.160;8.580;2023-02-28T03:11:54;0.30;1.00
46490;DHT22;32204;49.160;8.580;2023-02-28T03:24:41;0.20;1.00
46490;DHT22;32204;49.160;8.580;2023-02-28T03:27:15;0.30;1.00
46490;DHT22;32204;49.160;8.580;2023-02-28T03:35:32;0.20;1.00
46490;DHT22;32204;49.160;8.580;2023-02-28T03:38:13;0.20;1.00
46490;DHT22;32204;49.160;8.580;2023-02-28T03:40:45;0.30;1.00
46490;DHT22;32204;49.160;8.580;2023-02-28T03:43:17;0.20;1.00
46490;DHT22;32204;49.160;8.580;2023-02-28T03:45:44;0.20;1.00
46490;DHT22;32204;49.160;8.580;2023-02-28T03:48:21;0.20;1.00
46490;DHT22;32204;49.160;8.580;2023-02-28T03:50:49;0.20;1.00
46490;DHT22;32204;49.160;8.580;2023-02-28T03:53:33;0.20;1.00
46490;DHT22;32204;49.160;8.580;2023-02-28T03:56:06;0.10;1.00
46490;DHT22;32204;49.160;8.580;2023-02-28T03:59:02;0.10;1.00
46490;DHT22;32204;49.160;8.580;2023-02-28T04:04:03;0.10;21.90
46490;DHT22;32204;49.160;8.580;2023-02-28T04:06:31;0.10;1.00
46490;DHT22;32204;49.160;8.580;2023-02-28T04:08:57;0.10;1.00
46490;DHT22;32204;49.160;8.580;2023-02-28T04:13:53;0.10;1.00
46490;DHT22;32204;49.160;8.580;2023-02-28T04:16:19;0.20;38.70
46490;DHT22;32204;49.160;8.580;2023-02-28T04:18:44;0.20;1.00
46490;DHT22;32204;49.160;8.580;2023-02-28T04:21:10;0.20;1.00
46490;DHT22;32204;49.160;8.580;2023-02-28T04:23:36;0.20;1.00
46490;DHT22;32204;49.160;8.580;2023-02-28T04:26:02;0.30;1.00
46490;DHT22;32204;49.160;8.580;2023-02-28T04:28:29;0.40;1.00
46490;DHT22;32204;49.160;8.580;2023-02-28T04:31:01;0.40;1.00
46490;DHT22;32204;49.160;8.580;2023-02-28T04:33:27;0.40;1.00
46490;DHT22;32204;49.160;8.580;2023-02-28T04:36:07;0.40;1.00
46490;DHT22;32204;49.160;8.580;2023-02-28T04:38:35;0.30;1.00
46490;DHT22;32204;49.160;8.580;2023-02-28T04:41:01;0.30;1.80
46490;DHT22;32204;49.160;8.580;2023-02-28T04:43:27;0.40;1.00
46490;DHT22;32204;49.160;8.580;2023-02-28T04:45:54;0.30;1.00
46490;DHT22;32204;49.160;8.580;2023-02-28T04:48:25;0.30;36.00
46490;DHT22;32204;49.160;8.580;2023-02-28T04:50:52;0.40;1.00
46490;DHT22;32204;49.160;8.580;2023-02-28T04:53:18;0.40;1.00
46490;DHT22;32204;49.160;8.580;2023-02-28T04:55:44;0.30;1.00
46490;DHT22;32204;49.160;8.580;2023-02-28T04:58:10;0.40;1.00
46490;DHT22;32204;49.160;8.580;2023-02-28T05:00:36;0.40;1.00
46490;DHT22;32204;49.160;8.580;2023-02-28T05:03:01;0.40;1.70
46490;DHT22;32204;49.160;8.580;2023-02-28T05:05:27;0.40;1.00
46490;DHT22;32204;49.160;8.580;2023-02-28T05:07:52;0.50;1.00
46490;DHT22;32204;49.160;8.580;2023-02-28T05:10:19;0.50;1.00
46490;DHT22;32204;49.160;8.580;2023-02-28T05:12:44;0.40;1.00
46490;DHT22;32204;49.160;8.580;2023-02-28T05:15:14;0.40;1.00
46490;DHT22;32204;49.160;8.580;2023-02-28T05:17:40;0.40;1.00
46490;DHT22;32204;49.160;8.580;2023-02-28T05:20:06;0.40;1.00
46490;DHT22;32204;49.160;8.580;2023-02-28T05:22:32;0.40;1.00
46490;DHT22;32204;49.160;8.580;2023-02-28T05:24:58;0.40;1.00
46490;DHT22;32204;49.160;8.580;2023-02-28T05:27:23;0.40;1.00
46490;DHT22;32204;49.160;8.580;2023-02-28T05:29:49;0.40;1.00
46490;DHT22;32204;49.160;8.580;2023-02-28T05:32:15;0.50;1.00
46490;DHT22;32204;49.160;8.580;2023-02-28T05:34:41;0.50;1.00
46490;DHT22;32204;49.160;8.580;2023-02-28T05:37:12;0.40;1.00
46490;DHT22;32204;49.160;8.580;2023-02-28T05:39:42;0.50;1.00
46490;DHT22;32204;49.160;8.580;2023-02-28T05:42:08;0.50;1.00
46490;DHT22;32204;49.160;8.580;2023-02-28T05:44:35;0.50;1.00
46490;DHT22;32204;49.160;8.580;2023-02-28T05:47:01;0.50;1.00
46490;DHT22;32204;49.160;8.580;2023-02-28T05:49:26;0.50;1.00
46490;DHT22;32204;49.160;8.580;2023-02-28T05:51:52;0.40;1.00
46490;DHT22;32204;49.160;8.580;2023-02-28T05:54:17;0.40;1.00
46490;DHT22;32204;49.160;8.580;2023-02-28T05:56:43;0.40;1.00
46490;DHT22;32204;49.160;8.580;2023-02-28T05:59:12;0.40;1.00
46490;DHT22;32204;49.160;8.580;2023-02-28T06:01:43;0.40;1.00
46490;DHT22;32204;49.160;8.580;2023-02-28T06:04:17;0.40;1.00
46490;DHT22;32204;49.160;8.580;2023-02-28T06:06:45;0.40;1.00
46490;DHT22;32204;49.160;8.580;2023-02-28T06:09:11;0.30;1.00
46490;DHT22;32204;49.160;8.580;2023-02-28T06:11:37;0.30;1.00
46490;DHT22;32204;49.160;8.580;2023-02-28T06:14:04;0.30;1.00
46490;DHT22;32204;49.160;8.580;2023-02-28T06:16:31;0.30;1.00
46490;DHT22;32204;49.160;8.580;2023-02-28T06:18:58;0.30;21.90
46490;DHT22;32204;49.160;8.580;2023-02-28T06:21:24;0.30;1.00
46490;DHT22;32204;49.160;8.580;2023-02-28T06:23:50;0.30;1.00
46490;DHT22;32204;49.160;8.580;2023-02-28T06:26:16;0.30;1.00
46490;DHT22;32204;49.160;8.580;2023-02-28T06:28:42;0.30;1.00
46490;DHT22;32204;49.160;8.580;2023-02-28T06:31:09;0.20;16.40
46490;DHT22;32204;49.160;8.580;2023-02-28T06:33:36;0.20;1.90
46490;DHT22;32204;49.160;8.580;2023-02-28T06:36:02;0.40;85.50
46490;DHT22;32204;49.160;8.580;2023-02-28T06:38:29;0.50;99.90
46490;DHT22;32204;49.160;8.580;2023-02-28T06:40:55;0.50;1.00
46490;DHT22;32204;49.160;8.580;2023-02-28T06:43:22;0.50;1.00
46490;DHT22;32204;49.160;8.580;2023-02-28T06:45:48;0.40;1.00
46490;DHT22;32204;49.160;8.580;2023-02-28T06:48:14;0.40;1.00
46490;DHT22;32204;49.160;8.580;2023-02-28T06:50:39;0.50;1.00
46490;DHT22;32204;49.160;8.580;2023-02-28T06:53:05;0.50;1.00
46490;DHT22;32204;49.160;8.580;2023-02-28T06:55:31;0.50;1.00
46490;DHT22;32204;49.160;8.580;2023-02-28T06:57:57;0.40;1.00
46490;DHT22;32204;49.160;8.580;2023-02-28T07:00:23;0.50;1.00
46490;DHT22;32204;49.160;8.580;2023-02-28T07:02:50;0.50;1.00
46490;DHT22;32204;49.160;8.580;2023-02-28T07:05:16;0.50;1.00
46490;DHT22;32204;49.160;8.580;2023-02-28T07:07:41;0.60;1.00
46490;DHT22;32204;49.160;8.580;2023-02-28T07:10:12;0.60;99.90
46490;DHT22;32204;49.160;8.580;2023-02-28T07:12:40;0.50;99.90
46490;DHT22;32204;49.160;8.580;2023-02-28T07:15:06;0.60;99.90
46490;DHT22;32204;49.160;8.580;2023-02-28T07:17:32;0.50;99.90
46490;DHT22;32204;49.160;8.580;2023-02-28T07:19:57;0.50;1.00
46490;DHT22;32204;49.160;8.580;2023-02-28T07:22:23;0.50;99.90
46490;DHT22;32204;49.160;8.580;2023-02-28T07:24:50;0.60;99.90
46490;DHT22;32204;49.160;8.580;2023-02-28T07:27:15;0.60;99.90
46490;DHT22;32204;49.160;8.580;2023-02-28T07:29:49;0.60;99.90
46490;DHT22;32204;49.160;8.580;2023-02-28T07:32:15;0.60;99.90
46490;DHT22;32204;49.160;8.580;2023-02-28T07:34:41;0.60;99.90
46490;DHT22;32204;49.160;8.580;2023-02-28T07:37:07;0.70;99.90
46490;DHT22;32204;49.160;8.580;2023-02-28T07:39:32;0.70;99.90
46490;DHT22;32204;49.160;8.580;2023-02-28T07:41:58;0.70;99.90
46490;DHT22;32204;49.160;8.580;2023-02-28T07:44:25;0.80;99.90
46490;DHT22;32204;49.160;8.580;2023-02-28T07:46:51;0.80;99.90
46490;DHT22;32204;49.160;8.580;2023-02-28T07:49:18;0.80;99.90
46490;DHT22;32204;49.160;8.580;2023-02-28T07:51:44;0.80;99.90
46490;DHT22;32204;49.160;8.580;2023-02-28T07:54:09;0.90;99.90
46490;DHT22;32204;49.160;8.580;2023-02-28T07:56:35;1.00;99.90
46490;DHT22;32204;49.160;8.580;2023-02-28T07:59:02;1.10;26.70
46490;DHT22;32204;49.160;8.580;2023-02-28T08:01:27;1.10;1.00
46490;DHT22;32204;49.160;8.580;2023-02-28T08:03:53;1.10;1.00
46490;DHT22;32204;49.160;8.580;2023-02-28T08:06:21;1.00;1.00
46490;DHT22;32204;49.160;8.580;2023-02-28T08:08:48;1.00;6.00
46490;DHT22;32204;49.160;8.580;2023-02-28T08:11:15;1.00;1.00
46490;DHT22;32204;49.160;8.580;2023-02-28T08:13:41;1.00;1.00
46490;DHT22;32204;49.160;8.580;2023-02-28T08:16:07;1.00;1.00
46490;DHT22;32204;49.160;8.580;2023-02-28T08:18:33;1.00;1.00
46490;DHT22;32204;49.160;8.580;2023-02-28T08:20:59;1.00;1.00
46490;DHT22;32204;49.160;8.580;2023-02-28T08:23:25;1.00;1.00
46490;DHT22;32204;49.160;8.580;2023-02-28T08:25:56;0.90;1.00
46490;DHT22;32204;49.160;8.580;2023-02-28T08:28:22;1.10;1.00
46490;DHT22;32204;49.160;8.580;2023-02-28T08:30:48;1.10;1.00
46490;DHT22;32204;49.160;8.580;2023-02-28T08:33:14;1.10;1.00
46490;DHT22;32204;49.160;8.580;2023-02-28T08:35:40;1.20;1.00
46490;DHT22;32204;49.160;8.580;2023-02-28T08:38:05;1.30;1.00
46490;DHT22;32204;49.160;8.580;2023-02-28T08:40:31;1.30;99.90
46490;DHT22;32204;49.160;8.580;2023-02-28T08:42:56;1.40;99.90
46490;DHT22;32204;49.160;8.580;2023-02-28T08:45:22;1.50;99.90
46490;DHT22;32204;49.160;8.580;2023-02-28T08:47:48;1.50;99.90
46490;DHT22;32204;49.160;8.580;2023-02-28T08:50:13;1.50;99.90
46490;DHT22;32204;49.160;8.580;2023-02-28T08:52:42;1.50;99.90
46490;DHT22;32204;49.160;8.580;2023-02-28T08:55:08;1.70;99.90
46490;DHT22;32204;49.160;8.580;2023-02-28T08:57:34;1.70;99.90
46490;DHT22;32204;49.160;8.580;2023-02-28T09:00:00;1.70;99.90
46490;DHT22;32204;49.160;8.580;2023-02-28T09:02:31;1.70;99.90
46490;DHT22;32204;49.160;8.580;2023-02-28T09:04:57;1.80;99.90
46490;DHT22;32204;49.160;8.580;2023-02-28T09:07:24;1.90;99.90
46490;DHT22;32204;49.160;8.580;2023-02-28T09:09:49;1.90;99.90
46490;DHT22;32204;49.160;8.580;2023-02-28T09:12:25;2.00;99.90
46490;DHT22;32204;49.160;8.580;2023-02-28T09:14:51;2.00;28.40
46490;DHT22;32204;49.160;8.580;2023-02-28T09:17:18;2.00;31.10
46490;DHT22;32204;49.160;8.580;2023-02-28T09:19:44;2.00;28.10
46490;DHT22;32204;49.160;8.580;2023-02-28T09:22:10;2.20;13.50
46490;DHT22;32204;49.160;8.580;2023-02-28T09:24:37;2.20;1.00
46490;DHT22;32204;49.160;8.580;2023-02-28T09:27:04;2.30;1.00
46490;DHT22;32204;49.160;8.580;2023-02-28T09:29:31;2.30;1.00
46490;DHT22;32204;49.160;8.580;2023-02-28T09:31:56;2.50;1.00
46490;DHT22;32204;49.160;8.580;2023-02-28T09:34:26;2.50;1.00
46490;DHT22;32204;49.160;8.580;2023-02-28T09:36:52;2.60;1.00
46490;DHT22;32204;49.160;8.580;2023-02-28T09:39:21;2.70;1.00
46490;DHT22;32204;49.160;8.580;2023-02-28T09:41:53;2.80;1.00
46490;DHT22;32204;49.160;8.580;2023-02-28T09:44:41;2.80;99.90
46490;DHT22;32204;49.160;8.580;2023-02-28T09:47:26;2.80;99.90
46490;DHT22;32204;49.160;8.580;2023-02-28T09:49:52;2.90;99.90
46490;DHT22;32204;49.160;8.580;2023-02-28T09:52:28;3.10;99.90
46490;DHT22;32204;49.160;8.580;2023-02-28T09:54:55;3.20;99.90
46490;DHT22;32204;49.160;8.580;2023-02-28T09:57:40;3.30;99.90
46490;DHT22;32204;49.160;8.580;2023-02-28T10:00:13;3.30;99.90
46490;DHT22;32204;49.160;8.580;2023-02-28T10:05:15;3.50;99.90
46490;DHT22;32204;49.160;8.580;2023-02-28T10:08:02;3.60;99.90
46490;DHT22;32204;49.160;8.580;2023-02-28T10:10:49;3.50;99.90
46490;DHT22;32204;49.160;8.580;2023-02-28T10:13:27;3.50;99.90
46490;DHT22;32204;49.160;8.580;2023-02-28T10:16:00;3.70;99.90
46490;DHT22;32204;49.160;8.580;2023-02-28T10:18:56;3.70;99.90
46490;DHT22;32204;49.160;8.580;2023-02-28T10:21:35;3.80;99.90
46490;DHT22;32204;49.160;8.580;2023-02-28T10:26:44;4.00;99.90
46490;DHT22;32204;49.160;8.580;2023-02-28T10:29:11;4.00;99.90
46490;DHT22;32204;49.160;8.580;2023-02-28T10:31:36;4.00;99.90
46490;DHT22;32204;49.160;8.580;2023-02-28T10:34:03;4.10;99.10
46490;DHT22;32204;49.160;8.580;2023-02-28T10:36:31;4.00;91.80
46490;DHT22;32204;49.160;8.580;2023-02-28T10:38:57;4.00;99.90
46490;DHT22;32204;49.160;8.580;2023-02-28T10:41:31;4.00;95.80
46490;DHT22;32204;49.160;8.580;2023-02-28T10:46:40;4.10;97.50
46490;DHT22;32204;49.160;8.580;2023-02-28T10:49:13;4.30;59.10
46490;DHT22;32204;49.160;8.580;2023-02-28T10:51:40;4.40;44.00
46490;DHT22;32204;49.160;8.580;2023-02-28T10:54:19;4.40;39.20
46490;DHT22;32204;49.160;8.580;2023-02-28T10:56:45;4.50;76.30
46490;DHT22;32204;49.160;8.580;2023-02-28T10:59:30;4.60;38.30
46490;DHT22;32204;49.160;8.580;2023-02-28T11:01:56;4.80;10.60
46490;DHT22;32204;49.160;8.580;2023-02-28T11:04:33;4.80;23.70
46490;DHT22;32204;49.160;8.580;2023-02-28T11:07:03;4.70;1.00
46490;DHT22;32204;49.160;8.580;2023-02-28T11:09:33;4.70;1.00
46490;DHT22;32204;49.160;8.580;2023-02-28T11:12:02;4.40;1.00
46490;DHT22;32204;49.160;8.580;2023-02-28T11:14:30;4.30;18.40
46490;DHT22;32204;49.160;8.580;2023-02-28T11:17:11;4.40;11.30
46490;DHT22;32204;49.160;8.580;2023-02-28T11:19:44;4.30;1.00
46490;DHT22;32204;49.160;8.580;2023-02-28T11:22:11;4.30;1.00
46490;DHT22;32204;49.160;8.580;2023-02-28T11:24:45;4.50;6.10
46490;DHT22;32204;49.160;8.580;2023-02-28T11:29:54;4.80;1.00
46490;DHT22;32204;49.160;8.580;2023-02-28T11:32:25;5.10;1.00
46490;DHT22;32204;49.160;8.580;2023-02-28T11:35:18;5.20;1.00
46490;DHT22;32204;49.160;8.580;2023-02-28T11:37:47;5.20;1.00
46490;DHT22;32204;49.160;8.580;2023-02-28T11:40:19;5.10;1.00
46490;DHT22;32204;49.160;8.580;2023-02-28T11:45:44;4.60;1.00
46490;DHT22;32204;49.160;8.580;2023-02-28T11:48:21;4.50;1.00
46490;DHT22;32204;49.160;8.580;2023-02-28T11:51:23;4.60;1.00
46490;DHT22;32204;49.160;8.580;2023-02-28T11:54:24;4.80;1.00
46490;DHT22;32204;49.160;8.580;2023-02-28T11:57:17;5.00;1.00
46490;DHT22;32204;49.160;8.580;2023-02-28T11:59:56;5.20;1.00
46490;DHT22;32204;49.160;8.580;2023-02-28T12:02:31;5.10;1.00
46490;DHT22;32204;49.160;8.580;2023-02-28T12:10:35;5.20;1.00
46490;DHT22;32204;49.160;8.580;2023-02-28T12:21:07;4.90;1.00
46490;DHT22;32204;49.160;8.580;2023-02-28T12:26:16;5.10;1.00
46490;DHT22;32204;49.160;8.580;2023-02-28T12:28:52;5.20;1.00
46490;DHT22;32204;49.160;8.580;2023-02-28T12:31:29;4.90;1.00
46490;DHT22;32204;49.160;8.580;2023-02-28T12:34:00;4.90;1.00
46490;DHT22;32204;49.160;8.580;2023-02-28T12:36:27;4.90;1.00
46490;DHT22;32204;49.160;8.580;2023-02-28T12:39:01;4.90;1.00
46490;DHT22;32204;49.160;8.580;2023-02-28T12:44:39;5.00;1.00
46490;DHT22;32204;49.160;8.580;2023-02-28T12:47:14;5.10;1.00
46490;DHT22;32204;49.160;8.580;2023-02-28T12:49:46;5.00;1.00
46490;DHT22;32204;49.160;8.580;2023-02-28T12:52:20;4.90;1.00
46490;DHT22;32204;49.160;8.580;2023-02-28T12:54:56;5.10;1.00
46490;DHT22;32204;49.160;8.580;2023-02-28T12:57:36;5.10;1.00
46490;DHT22;32204;49.160;8.580;2023-02-28T13:00:13;5.10;1.00
46490;DHT22;32204;49.160;8.580;2023-02-28T13:14:00;5.40;1.00
46490;DHT22;32204;49.160;8.580;2023-02-28T13:16:27;5.30;1.00
46490;DHT22;32204;49.160;8.580;2023-02-28T13:19:09;5.30;1.00
46490;DHT22;32204;49.160;8.580;2023-02-28T13:21:43;5.40;1.00
46490;DHT22;32204;49.160;8.580;2023-02-28T13:24:10;5.40;1.00
46490;DHT22;32204;49.160;8.580;2023-02-28T13:34:38;5.60;1.00
46490;DHT22;32204;49.160;8.580;2023-02-28T13:47:40;5.80;1.00
46490;DHT22;32204;49.160;8.580;2023-02-28T13:50:27;5.80;1.00
46490;DHT22;32204;49.160;8.580;2023-02-28T13:58:57;5.50;1.00
46490;DHT22;32204;49.160;8.580;2023-02-28T14:01:47;5.50;1.00
46490;DHT22;32204;49.160;8.580;2023-02-28T14:07:03;5.40;1.00
46490;DHT22;32204;49.160;8.580;2023-02-28T14:09:37;5.40;1.00
46490;DHT22;32204;49.160;8.580;2023-02-28T14:18:13;5.60;1.00
46490;DHT22;32204;49.160;8.580;2023-02-28T14:20:40;5.60;1.00
46490;DHT22;32204;49.160;8.580;2023-02-28T14:23:48;5.70;1.00
46490;DHT22;32204;49.160;8.580;2023-02-28T14:32:35;5.90;1.00
46490;DHT22;32204;49.160;8.580;2023-02-28T14:37:51;6.00;1.00
46490;DHT22;32204;49.160;8.580;2023-02-28T14:40:35;6.00;1.00
46490;DHT22;32204;49.160;8.580;2023-02-28T14:43:06;6.10;1.00
46490;DHT22;32204;49.160;8.580;2023-02-28T14:45:43;6.30;1.00
46490;DHT22;32204;49.160;8.580;2023-02-28T14:48:09;6.40;1.00
46490;DHT22;32204;49.160;8.580;2023-02-28T14:50:37;6.40;1.00
46490;DHT22;32204;49.160;8.580;2023-02-28T14:53:03;6.40;1.00
46490;DHT22;32204;49.160;8.580;2023-02-28T14:55:35;6.50;1.00
46490;DHT22;32204;49.160;8.580;2023-02-28T14:58:06;6.50;1.00
46490;DHT22;32204;49.160;8.580;2023-02-28T15:00:36;6.40;1.00
46490;DHT22;32204;49.160;8.580;2023-02-28T15:03:24;6.30;1.00
46490;DHT22;32204;49.160;8.580;2023-02-28T15:05:56;6.40;1.00
46490;DHT22;32204;49.160;8.580;2023-02-28T15:08:23;6.50;1.00
46490;DHT22;32204;49.160;8.580;2023-02-28T15:13:23;6.30;1.00
46490;DHT22;32204;49.160;8.580;2023-02-28T15:15:55;6.30;1.00
46490;DHT22;32204;49.160;8.580;2023-02-28T15:18:53;6.30;1.00
46490;DHT22;32204;49.160;8.580;2023-02-28T15:21:22;6.20;1.00
46490;DHT22;32204;49.160;8.580;2023-02-28T15:23:58;6.40;1.00
46490;DHT22;32204;49.160;8.580;2023-02-28T15:26:34;6.40;1.00
46490;DHT22;32204;49.160;8.580;2023-02-28T15:29:10;6.40;1.00
46490;DHT22;32204;49.160;8.580;2023-02-28T15:31:43;6.40;1.00
46490;DHT22;32204;49.160;8.580;2023-02-28T15:34:36;6.30;1.00
46490;DHT22;32204;49.160;8.580;2023-02-28T15:37:53;6.20;1.00
46490;DHT22;32204;49.160;8.580;2023-02-28T15:39:55;6.20;1.00
46490;DHT22;32204;49.160;8.580;2023-02-28T15:42:23;6.10;1.00
46490;DHT22;32204;49.160;8.580;2023-02-28T15:44:52;6.10;1.00
46490;DHT22;32204;49.160;8.580;2023-02-28T15:47:20;6.10;1.00
46490;DHT22;32204;49.160;8.580;2023-02-28T15:49:59;6.00;1.00
46490;DHT22;32204;49.160;8.580;2023-02-28T15:52:34;5.90;1.00
46490;DHT22;32204;49.160;8.580;2023-02-28T15:55:24;5.90;1.00
46490;DHT22;32204;49.160;8.580;2023-02-28T15:57:53;6.00;1.00
46490;DHT22;32204;49.160;8.580;2023-02-28T16:00:24;6.10;1.00
46490;DHT22;32204;49.160;8.580;2023-02-28T16:02:50;6.10;1.00
46490;DHT22;32204;49.160;8.580;2023-02-28T16:05:30;6.00;1.00
46490;DHT22;32204;49.160;8.580;2023-02-28T16:07:59;5.90;1.00
46490;DHT22;32204;49.160;8.580;2023-02-28T16:10:26;5.90;1.00
46490;DHT22;32204;49.160;8.580;2023-02-28T16:12:54;6.00;1.00
46490;DHT22;32204;49.160;8.580;2023-02-28T16:15:28;6.00;1.00
46490;DHT22;32204;49.160;8.580;2023-02-28T16:17:55;5.80;1.00
46490;DHT22;32204;49.160;8.580;2023-02-28T16:20:29;5.80;1.00
46490;DHT22;32204;49.160;8.580;2023-02-28T16:22:55;5.80;1.00
46490;DHT22;32204;49.160;8.580;2023-02-28T16:25:32;5.80;1.00
46490;DHT22;32204;49.160;8.580;2023-02-28T16:27:58;5.70;1.00
46490;DHT22;32204;49.160;8.580;2023-02-28T16:30:27;5.60;1.00
46490;DHT22;32204;49.160;8.580;2023-02-28T16:32:57;5.50;1.00
46490;DHT22;32204;49.160;8.580;2023-02-28T16:35:23;5.50;1.00
46490;DHT22;32204;49.160;8.580;2023-02-28T16:37:52;5.40;1.00
46490;DHT22;32204;49.160;8.580;2023-02-28T16:40:21;5.30;1.00
46490;DHT22;32204;49.160;8.580;2023-02-28T16:42:50;5.20;1.00
46490;DHT22;32204;49.160;8.580;2023-02-28T16:45:23;5.10;1.00
46490;DHT22;32204;49.160;8.580;2023-02-28T16:47:49;5.10;1.00
46490;DHT22;32204;49.160;8.580;2023-02-28T16:50:19;5.10;1.00
46490;DHT22;32204;49.160;8.580;2023-02-28T16:52:45;5.00;1.00
46490;DHT22;32204;49.160;8.580;2023-02-28T16:55:11;5.00;1.00
46490;DHT22;32204;49.160;8.580;2023-02-28T16:57:37;4.90;1.00
46490;DHT22;32204;49.160;8.580;2023-02-28T17:00:05;4.90;1.00
46490;DHT22;32204;49.160;8.580;2023-02-28T17:02:33;4.90;1.00
46490;DHT22;32204;49.160;8.580;2023-02-28T17:04:59;4.70;1.00
46490;DHT22;32204;49.160;8.580;2023-02-28T17:07:25;4.70;10.80
46490;DHT22;32204;49.160;8.580;2023-02-28T17:09:51;4.70;18.40
46490;DHT22;32204;49.160;8.580;2023-02-28T17:12:16;4.60;28.90
46490;DHT22;32204;49.160;8.580;2023-02-28T17:14:42;4.60;19.90
46490;DHT22;32204;49.160;8.580;2023-02-28T17:17:14;4.60;21.50
46490;DHT22;32204;49.160;8.580;2023-02-28T17:19:41;4.50;36.20
46490;DHT22;32204;49.160;8.580;2023-02-28T17:22:09;4.50;38.80
46490;DHT22;32204;49.160;8.580;2023-02-28T17:24:35;4.50;46.20
46490;DHT22;32204;49.160;8.580;2023-02-28T17:27:01;4.50;44.40
46490;DHT22;32204;49.160;8.580;2023-02-28T17:29:26;4.50;43.00
46490;DHT22;32204;49.160;8.580;2023-02-28T17:31:52;4.50;58.20
46490;DHT22;32204;49.160;8.580;2023-02-28T17:34:18;4.40;62.40
46490;DHT22;32204;49.160;8.580;2023-02-28T17:36:46;4.40;89.30
46490;DHT22;32204;49.160;8.580;2023-02-28T17:39:13;4.40;73.40
46490;DHT22;32204;49.160;8.580;2023-02-28T17:41:42;4.30;85.60
46490;DHT22;32204;49.160;8.580;2023-02-28T17:44:08;4.30;99.90
46490;DHT22;32204;49.160;8.580;2023-02-28T17:46:35;4.20;99.90
46490;DHT22;32204;49.160;8.580;2023-02-28T17:49:02;4.30;99.90
46490;DHT22;32204;49.160;8.580;2023-02-28T17:51:31;4.30;99.90
46490;DHT22;32204;49.160;8.580;2023-02-28T17:53:56;4.20;99.90
46490;DHT22;32204;49.160;8.580;2023-02-28T17:56:23;4.20;99.90
46490;DHT22;32204;49.160;8.580;2023-02-28T17:58:51;4.20;99.90
46490;DHT22;32204;49.160;8.580;2023-02-28T18:01:17;4.10;99.90
46490;DHT22;32204;49.160;8.580;2023-02-28T18:03:43;4.00;99.90
46490;DHT22;32204;49.160;8.580;2023-02-28T18:06:19;4.00;99.90
46490;DHT22;32204;49.160;8.580;2023-02-28T18:08:45;3.90;99.90
46490;DHT22;32204;49.160;8.580;2023-02-28T18:11:10;4.00;99.90
46490;DHT22;32204;49.160;8.580;2023-02-28T18:13:44;3.90;99.90
46490;DHT22;32204;49.160;8.580;2023-02-28T18:16:10;3.90;99.90
46490;DHT22;32204;49.160;8.580;2023-02-28T18:18:35;3.80;99.90
46490;DHT22;32204;49.160;8.580;2023-02-28T18:21:07;3.90;99.90
46490;DHT22;32204;49.160;8.580;2023-02-28T18:23:34;3.90;99.90
46490;DHT22;32204;49.160;8.580;2023-02-28T18:25:59;3.80;99.90